Terminal Aerodrome Forecast
Issued by NWS

Home | Current Version | Previous Version | Text Only | Print | Product List | Glossary On
Versions: 1 2 3 4 5 6 7 8 9 10 11 12 13 14 15 16 17
000
FTUS41 KBTV 261739
TAFSLK
TAF
KSLK 261739Z 2618/2718 36007KT P6SM VCSH SCT008 OVC025
      TEMPO 2618/2622 3SM -RA BR OVC008
     FM270000 35006KT P6SM OVC015
     FM270300 35004KT 3SM BR OVC010
      TEMPO 2708/2712 1/4SM FG VV001
     FM271400 34005KT P6SM BKN015=

USA.gov is the U.S. government's official web portal to all federal, state and local government web resources and services.